sensor_id;sensor_type;location;lat;lon;timestamp;P1;durP1;ratioP1;P2;durP2;ratioP2
78672;SDS011;67988;60.086;30.354;2023-07-31T00:01:21;12.82;;;6.72;;
78672;SDS011;67988;60.086;30.354;2023-07-31T00:03:48;14.80;;;7.28;;
78672;SDS011;67988;60.086;30.354;2023-07-31T00:06:15;21.05;;;8.40;;
78672;SDS011;67988;60.086;30.354;2023-07-31T00:08:42;24.27;;;10.05;;
78672;SDS011;67988;60.086;30.354;2023-07-31T00:11:11;26.25;;;7.88;;
78672;SDS011;67988;60.086;30.354;2023-07-31T00:13:38;16.35;;;7.40;;
78672;SDS011;67988;60.086;30.354;2023-07-31T00:16:05;9.95;;;6.65;;
78672;SDS011;67988;60.086;30.354;2023-07-31T00:18:32;19.17;;;7.68;;
78672;SDS011;67988;60.086;30.354;2023-07-31T00:20:59;18.42;;;8.23;;
78672;SDS011;67988;60.086;30.354;2023-07-31T00:23:26;14.05;;;7.72;;
78672;SDS011;67988;60.086;30.354;2023-07-31T00:25:53;20.60;;;8.43;;
78672;SDS011;67988;60.086;30.354;2023-07-31T00:28:22;14.20;;;8.48;;
78672;SDS011;67988;60.086;30.354;2023-07-31T00:30:49;17.27;;;8.00;;
78672;SDS011;67988;60.086;30.354;2023-07-31T00:33:16;13.55;;;7.30;;
78672;SDS011;67988;60.086;30.354;2023-07-31T00:35:43;16.02;;;8.35;;
78672;SDS011;67988;60.086;30.354;2023-07-31T00:38:10;11.45;;;6.72;;
78672;SDS011;67988;60.086;30.354;2023-07-31T00:40:39;20.80;;;8.18;;
78672;SDS011;67988;60.086;30.354;2023-07-31T00:43:06;17.77;;;7.75;;
78672;SDS011;67988;60.086;30.354;2023-07-31T00:45:35;15.68;;;8.30;;
78672;SDS011;67988;60.086;30.354;2023-07-31T00:48:02;18.30;;;7.20;;
78672;SDS011;67988;60.086;30.354;2023-07-31T00:50:31;12.55;;;6.43;;
78672;SDS011;67988;60.086;30.354;2023-07-31T00:52:59;10.82;;;6.00;;
78672;SDS011;67988;60.086;30.354;2023-07-31T00:55:26;9.63;;;6.30;;
78672;SDS011;67988;60.086;30.354;2023-07-31T00:57:54;13.93;;;7.18;;
78672;SDS011;67988;60.086;30.354;2023-07-31T01:00:22;10.60;;;6.50;;
78672;SDS011;67988;60.086;30.354;2023-07-31T01:02:50;12.68;;;6.60;;
78672;SDS011;67988;60.086;30.354;2023-07-31T01:05:18;17.30;;;6.70;;
78672;SDS011;67988;60.086;30.354;2023-07-31T01:07:55;10.80;;;7.18;;
78672;SDS011;67988;60.086;30.354;2023-07-31T01:10:31;10.48;;;6.22;;
78672;SDS011;67988;60.086;30.354;2023-07-31T01:13:03;11.93;;;6.70;;
78672;SDS011;67988;60.086;30.354;2023-07-31T01:15:32;11.43;;;6.75;;
78672;SDS011;67988;60.086;30.354;2023-07-31T01:18:01;8.63;;;6.93;;
78672;SDS011;67988;60.086;30.354;2023-07-31T01:20:28;7.45;;;6.35;;
78672;SDS011;67988;60.086;30.354;2023-07-31T01:23:08;8.63;;;5.55;;
78672;SDS011;67988;60.086;30.354;2023-07-31T01:28:44;9.85;;;5.47;;
78672;SDS011;67988;60.086;30.354;2023-07-31T01:31:18;8.23;;;5.82;;
78672;SDS011;67988;60.086;30.354;2023-07-31T01:33:49;8.68;;;6.20;;
78672;SDS011;67988;60.086;30.354;2023-07-31T01:36:19;10.27;;;6.55;;
78672;SDS011;67988;60.086;30.354;2023-07-31T01:38:47;14.98;;;6.28;;
78672;SDS011;67988;60.086;30.354;2023-07-31T01:41:17;8.57;;;6.63;;
78672;SDS011;67988;60.086;30.354;2023-07-31T01:43:44;8.18;;;5.75;;
78672;SDS011;67988;60.086;30.354;2023-07-31T01:46:11;9.85;;;6.70;;
78672;SDS011;67988;60.086;30.354;2023-07-31T01:48:39;8.43;;;5.80;;
78672;SDS011;67988;60.086;30.354;2023-07-31T01:51:06;7.20;;;5.68;;
78672;SDS011;67988;60.086;30.354;2023-07-31T01:53:33;9.63;;;6.85;;
78672;SDS011;67988;60.086;30.354;2023-07-31T01:56:00;8.20;;;6.32;;
78672;SDS011;67988;60.086;30.354;2023-07-31T01:58:31;8.68;;;5.15;;
78672;SDS011;67988;60.086;30.354;2023-07-31T02:00:58;12.38;;;6.55;;
78672;SDS011;67988;60.086;30.354;2023-07-31T02:05:53;12.27;;;5.80;;
78672;SDS011;67988;60.086;30.354;2023-07-31T02:08:20;8.13;;;5.85;;
78672;SDS011;67988;60.086;30.354;2023-07-31T02:10:48;9.70;;;5.97;;
78672;SDS011;67988;60.086;30.354;2023-07-31T02:13:15;7.07;;;4.28;;
78672;SDS011;67988;60.086;30.354;2023-07-31T02:15:43;7.20;;;5.53;;
78672;SDS011;67988;60.086;30.354;2023-07-31T02:18:12;7.82;;;5.47;;
78672;SDS011;67988;60.086;30.354;2023-07-31T02:20:39;7.55;;;5.35;;
78672;SDS011;67988;60.086;30.354;2023-07-31T02:23:06;7.93;;;4.72;;
78672;SDS011;67988;60.086;30.354;2023-07-31T02:25:33;7.63;;;5.13;;
78672;SDS011;67988;60.086;30.354;2023-07-31T02:28:01;7.13;;;5.07;;
78672;SDS011;67988;60.086;30.354;2023-07-31T02:30:28;7.20;;;5.18;;
78672;SDS011;67988;60.086;30.354;2023-07-31T02:32:56;10.07;;;5.45;;
78672;SDS011;67988;60.086;30.354;2023-07-31T02:35:23;10.75;;;6.38;;
78672;SDS011;67988;60.086;30.354;2023-07-31T02:37:50;7.85;;;6.65;;
78672;SDS011;67988;60.086;30.354;2023-07-31T02:40:18;7.38;;;6.22;;
78672;SDS011;67988;60.086;30.354;2023-07-31T02:42:45;10.10;;;6.35;;
78672;SDS011;67988;60.086;30.354;2023-07-31T02:45:13;8.48;;;5.82;;
78672;SDS011;67988;60.086;30.354;2023-07-31T02:47:40;11.07;;;4.90;;
78672;SDS011;67988;60.086;30.354;2023-07-31T02:50:09;6.28;;;5.18;;
78672;SDS011;67988;60.086;30.354;2023-07-31T02:52:37;11.82;;;7.03;;
78672;SDS011;67988;60.086;30.354;2023-07-31T02:55:04;10.20;;;5.88;;
78672;SDS011;67988;60.086;30.354;2023-07-31T02:57:32;7.13;;;5.47;;
78672;SDS011;67988;60.086;30.354;2023-07-31T02:59:59;6.95;;;5.20;;
78672;SDS011;67988;60.086;30.354;2023-07-31T03:02:26;11.13;;;6.55;;
78672;SDS011;67988;60.086;30.354;2023-07-31T03:04:53;9.35;;;5.70;;
78672;SDS011;67988;60.086;30.354;2023-07-31T03:07:22;7.88;;;5.18;;
78672;SDS011;67988;60.086;30.354;2023-07-31T03:09:49;9.98;;;6.15;;
78672;SDS011;67988;60.086;30.354;2023-07-31T03:12:16;7.75;;;6.03;;
78672;SDS011;67988;60.086;30.354;2023-07-31T03:14:44;9.23;;;6.97;;
78672;SDS011;67988;60.086;30.354;2023-07-31T03:17:12;9.77;;;6.88;;
78672;SDS011;67988;60.086;30.354;2023-07-31T03:19:39;8.70;;;5.15;;
78672;SDS011;67988;60.086;30.354;2023-07-31T03:22:06;8.50;;;6.35;;
78672;SDS011;67988;60.086;30.354;2023-07-31T03:24:35;9.50;;;6.43;;
78672;SDS011;67988;60.086;30.354;2023-07-31T03:27:02;8.10;;;6.05;;
78672;SDS011;67988;60.086;30.354;2023-07-31T03:31:56;13.35;;;6.00;;
78672;SDS011;67988;60.086;30.354;2023-07-31T03:34:24;9.85;;;5.22;;
78672;SDS011;67988;60.086;30.354;2023-07-31T03:36:51;12.15;;;6.47;;
78672;SDS011;67988;60.086;30.354;2023-07-31T03:39:18;10.05;;;6.65;;
78672;SDS011;67988;60.086;30.354;2023-07-31T03:41:47;8.85;;;7.82;;
78672;SDS011;67988;60.086;30.354;2023-07-31T03:44:16;8.73;;;7.30;;
78672;SDS011;67988;60.086;30.354;2023-07-31T03:49:11;11.85;;;7.15;;
78672;SDS011;67988;60.086;30.354;2023-07-31T03:51:38;11.52;;;8.23;;
78672;SDS011;67988;60.086;30.354;2023-07-31T03:54:05;12.82;;;7.72;;
78672;SDS011;67988;60.086;30.354;2023-07-31T03:56:33;12.38;;;8.43;;
78672;SDS011;67988;60.086;30.354;2023-07-31T03:59:01;10.15;;;7.38;;
78672;SDS011;67988;60.086;30.354;2023-07-31T04:01:29;12.27;;;7.63;;
78672;SDS011;67988;60.086;30.354;2023-07-31T04:03:56;10.32;;;7.25;;
78672;SDS011;67988;60.086;30.354;2023-07-31T04:06:23;11.38;;;7.40;;
78672;SDS011;67988;60.086;30.354;2023-07-31T04:08:50;16.08;;;8.52;;
78672;SDS011;67988;60.086;30.354;2023-07-31T04:11:17;10.95;;;7.30;;
78672;SDS011;67988;60.086;30.354;2023-07-31T04:13:44;14.27;;;7.20;;
78672;SDS011;67988;60.086;30.354;2023-07-31T04:16:13;11.95;;;7.72;;
78672;SDS011;67988;60.086;30.354;2023-07-31T04:18:40;9.93;;;8.02;;
78672;SDS011;67988;60.086;30.354;2023-07-31T04:21:07;12.20;;;7.18;;
78672;SDS011;67988;60.086;30.354;2023-07-31T04:23:35;11.25;;;7.47;;
78672;SDS011;67988;60.086;30.354;2023-07-31T04:26:02;19.30;;;9.18;;
78672;SDS011;67988;60.086;30.354;2023-07-31T04:28:29;9.93;;;6.82;;
78672;SDS011;67988;60.086;30.354;2023-07-31T04:30:57;9.82;;;6.82;;
78672;SDS011;67988;60.086;30.354;2023-07-31T04:33:25;12.40;;;6.78;;
78672;SDS011;67988;60.086;30.354;2023-07-31T04:35:53;10.82;;;6.80;;
78672;SDS011;67988;60.086;30.354;2023-07-31T04:38:20;12.60;;;7.68;;
78672;SDS011;67988;60.086;30.354;2023-07-31T04:43:15;9.45;;;6.50;;
78672;SDS011;67988;60.086;30.354;2023-07-31T04:45:44;11.57;;;6.75;;
78672;SDS011;67988;60.086;30.354;2023-07-31T04:48:13;7.82;;;5.00;;
78672;SDS011;67988;60.086;30.354;2023-07-31T04:50:42;8.25;;;6.55;;
78672;SDS011;67988;60.086;30.354;2023-07-31T04:53:09;12.32;;;6.07;;
78672;SDS011;67988;60.086;30.354;2023-07-31T04:55:36;6.35;;;5.45;;
78672;SDS011;67988;60.086;30.354;2023-07-31T04:58:03;10.90;;;5.53;;
78672;SDS011;67988;60.086;30.354;2023-07-31T05:00:31;10.15;;;5.00;;
78672;SDS011;67988;60.086;30.354;2023-07-31T05:02:58;8.25;;;5.72;;
78672;SDS011;67988;60.086;30.354;2023-07-31T05:05:25;7.13;;;5.05;;
78672;SDS011;67988;60.086;30.354;2023-07-31T05:07:54;6.78;;;4.88;;
78672;SDS011;67988;60.086;30.354;2023-07-31T05:10:21;9.77;;;5.85;;
78672;SDS011;67988;60.086;30.354;2023-07-31T05:12:48;11.13;;;5.05;;
78672;SDS011;67988;60.086;30.354;2023-07-31T05:15:15;7.18;;;4.25;;
78672;SDS011;67988;60.086;30.354;2023-07-31T05:17:43;10.35;;;4.70;;
78672;SDS011;67988;60.086;30.354;2023-07-31T05:20:10;12.55;;;3.80;;
78672;SDS011;67988;60.086;30.354;2023-07-31T05:22:38;7.90;;;4.07;;
78672;SDS011;67988;60.086;30.354;2023-07-31T05:25:07;11.48;;;4.97;;
78672;SDS011;67988;60.086;30.354;2023-07-31T05:27:34;6.18;;;3.78;;
78672;SDS011;67988;60.086;30.354;2023-07-31T05:30:02;9.18;;;4.80;;
78672;SDS011;67988;60.086;30.354;2023-07-31T05:32:29;5.30;;;3.83;;
78672;SDS011;67988;60.086;30.354;2023-07-31T05:34:56;7.90;;;4.43;;
78672;SDS011;67988;60.086;30.354;2023-07-31T05:37:23;8.38;;;4.20;;
78672;SDS011;67988;60.086;30.354;2023-07-31T05:39:51;7.13;;;5.43;;
78672;SDS011;67988;60.086;30.354;2023-07-31T05:42:19;8.65;;;3.70;;
78672;SDS011;67988;60.086;30.354;2023-07-31T05:44:46;13.07;;;5.00;;
78672;SDS011;67988;60.086;30.354;2023-07-31T05:47:13;15.93;;;4.45;;
78672;SDS011;67988;60.086;30.354;2023-07-31T05:49:41;23.77;;;5.70;;
78672;SDS011;67988;60.086;30.354;2023-07-31T05:52:08;5.72;;;3.35;;
78672;SDS011;67988;60.086;30.354;2023-07-31T05:54:35;8.15;;;3.47;;
78672;SDS011;67988;60.086;30.354;2023-07-31T05:57:02;14.95;;;3.85;;
78672;SDS011;67988;60.086;30.354;2023-07-31T05:59:30;14.10;;;3.63;;
78672;SDS011;67988;60.086;30.354;2023-07-31T06:01:58;9.77;;;3.47;;
78672;SDS011;67988;60.086;30.354;2023-07-31T06:04:25;11.27;;;3.38;;
78672;SDS011;67988;60.086;30.354;2023-07-31T06:06:52;13.55;;;3.58;;
78672;SDS011;67988;60.086;30.354;2023-07-31T06:09:19;6.45;;;3.80;;
78672;SDS011;67988;60.086;30.354;2023-07-31T06:11:46;6.55;;;2.95;;
78672;SDS011;67988;60.086;30.354;2023-07-31T06:14:13;5.90;;;3.08;;
78672;SDS011;67988;60.086;30.354;2023-07-31T06:16:42;6.60;;;3.47;;
78672;SDS011;67988;60.086;30.354;2023-07-31T06:19:10;5.60;;;3.67;;
78672;SDS011;67988;60.086;30.354;2023-07-31T06:21:37;5.57;;;3.80;;
78672;SDS011;67988;60.086;30.354;2023-07-31T06:24:04;6.35;;;3.47;;
78672;SDS011;67988;60.086;30.354;2023-07-31T06:26:32;7.53;;;3.10;;
78672;SDS011;67988;60.086;30.354;2023-07-31T06:28:59;5.88;;;3.13;;
78672;SDS011;67988;60.086;30.354;2023-07-31T06:31:26;6.72;;;4.10;;
78672;SDS011;67988;60.086;30.354;2023-07-31T06:33:54;4.70;;;2.92;;
78672;SDS011;67988;60.086;30.354;2023-07-31T06:36:21;4.70;;;3.00;;
78672;SDS011;67988;60.086;30.354;2023-07-31T06:38:48;5.00;;;3.90;;
78672;SDS011;67988;60.086;30.354;2023-07-31T06:41:16;10.15;;;3.40;;
78672;SDS011;67988;60.086;30.354;2023-07-31T06:43:43;6.55;;;3.05;;
78672;SDS011;67988;60.086;30.354;2023-07-31T06:46:10;4.10;;;2.15;;
78672;SDS011;67988;60.086;30.354;2023-07-31T06:48:37;4.95;;;2.03;;
78672;SDS011;67988;60.086;30.354;2023-07-31T06:51:06;4.57;;;2.25;;
78672;SDS011;67988;60.086;30.354;2023-07-31T06:53:33;4.68;;;3.00;;
78672;SDS011;67988;60.086;30.354;2023-07-31T06:56:00;5.57;;;2.30;;
78672;SDS011;67988;60.086;30.354;2023-07-31T07:00:54;5.93;;;3.28;;
78672;SDS011;67988;60.086;30.354;2023-07-31T07:03:21;64.03;;;12.77;;
78672;SDS011;67988;60.086;30.354;2023-07-31T07:05:48;9.57;;;3.10;;
78672;SDS011;67988;60.086;30.354;2023-07-31T07:08:17;4.38;;;2.55;;
78672;SDS011;67988;60.086;30.354;2023-07-31T07:10:44;6.60;;;3.55;;
78672;SDS011;67988;60.086;30.354;2023-07-31T07:13:11;6.32;;;2.90;;
78672;SDS011;67988;60.086;30.354;2023-07-31T07:15:39;3.67;;;2.88;;
78672;SDS011;67988;60.086;30.354;2023-07-31T07:18:06;9.52;;;3.03;;
78672;SDS011;67988;60.086;30.354;2023-07-31T07:20:33;9.70;;;3.25;;
78672;SDS011;67988;60.086;30.354;2023-07-31T07:23:00;8.55;;;3.25;;
78672;SDS011;67988;60.086;30.354;2023-07-31T07:25:28;4.30;;;2.70;;
78672;SDS011;67988;60.086;30.354;2023-07-31T07:27:56;8.48;;;2.97;;
78672;SDS011;67988;60.086;30.354;2023-07-31T07:30:23;6.13;;;2.30;;
78672;SDS011;67988;60.086;30.354;2023-07-31T07:32:51;4.60;;;3.00;;
78672;SDS011;67988;60.086;30.354;2023-07-31T07:35:18;7.40;;;3.13;;
78672;SDS011;67988;60.086;30.354;2023-07-31T07:37:45;7.68;;;3.20;;
78672;SDS011;67988;60.086;30.354;2023-07-31T07:40:15;13.65;;;3.25;;
78672;SDS011;67988;60.086;30.354;2023-07-31T07:42:43;5.47;;;3.15;;
78672;SDS011;67988;60.086;30.354;2023-07-31T07:45:11;7.07;;;3.22;;
78672;SDS011;67988;60.086;30.354;2023-07-31T07:50:05;12.57;;;2.33;;
78672;SDS011;67988;60.086;30.354;2023-07-31T07:52:33;5.47;;;2.45;;
78672;SDS011;67988;60.086;30.354;2023-07-31T07:55:00;2.45;;;1.92;;
78672;SDS011;67988;60.086;30.354;2023-07-31T07:57:28;4.32;;;1.40;;
78672;SDS011;67988;60.086;30.354;2023-07-31T07:59:57;9.90;;;2.13;;
78672;SDS011;67988;60.086;30.354;2023-07-31T08:02:24;5.10;;;1.90;;
78672;SDS011;67988;60.086;30.354;2023-07-31T08:04:51;9.45;;;2.25;;
78672;SDS011;67988;60.086;30.354;2023-07-31T08:07:18;4.63;;;2.17;;
78672;SDS011;67988;60.086;30.354;2023-07-31T08:09:46;4.10;;;2.50;;
78672;SDS011;67988;60.086;30.354;2023-07-31T08:12:13;6.57;;;2.25;;
78672;SDS011;67988;60.086;30.354;2023-07-31T08:14:40;4.50;;;1.70;;
78672;SDS011;67988;60.086;30.354;2023-07-31T08:17:08;7.50;;;2.17;;
78672;SDS011;67988;60.086;30.354;2023-07-31T08:19:35;7.50;;;2.25;;
78672;SDS011;67988;60.086;30.354;2023-07-31T08:24:30;6.03;;;2.72;;
78672;SDS011;67988;60.086;30.354;2023-07-31T08:26:57;7.93;;;2.10;;
78672;SDS011;67988;60.086;30.354;2023-07-31T08:29:24;6.80;;;2.83;;
78672;SDS011;67988;60.086;30.354;2023-07-31T08:31:51;6.95;;;1.88;;
78672;SDS011;67988;60.086;30.354;2023-07-31T08:34:20;9.82;;;2.80;;
78672;SDS011;67988;60.086;30.354;2023-07-31T08:36:47;5.82;;;2.40;;
78672;SDS011;67988;60.086;30.354;2023-07-31T08:39:14;8.43;;;2.60;;
78672;SDS011;67988;60.086;30.354;2023-07-31T08:41:41;10.55;;;2.60;;
78672;SDS011;67988;60.086;30.354;2023-07-31T08:44:08;6.38;;;2.97;;
78672;SDS011;67988;60.086;30.354;2023-07-31T08:46:38;6.40;;;2.17;;
78672;SDS011;67988;60.086;30.354;2023-07-31T08:49:06;6.25;;;2.78;;
78672;SDS011;67988;60.086;30.354;2023-07-31T08:51:35;8.02;;;2.85;;
78672;SDS011;67988;60.086;30.354;2023-07-31T08:54:03;6.25;;;2.72;;
78672;SDS011;67988;60.086;30.354;2023-07-31T08:56:31;8.43;;;2.05;;
78672;SDS011;67988;60.086;30.354;2023-07-31T08:58:59;5.95;;;2.00;;
78672;SDS011;67988;60.086;30.354;2023-07-31T09:01:30;3.80;;;1.98;;
78672;SDS011;67988;60.086;30.354;2023-07-31T09:04:02;7.55;;;2.15;;
78672;SDS011;67988;60.086;30.354;2023-07-31T09:06:31;5.03;;;1.98;;
78672;SDS011;67988;60.086;30.354;2023-07-31T09:09:01;8.95;;;2.10;;
78672;SDS011;67988;60.086;30.354;2023-07-31T09:11:28;7.93;;;2.20;;
78672;SDS011;67988;60.086;30.354;2023-07-31T09:13:56;4.10;;;1.90;;
78672;SDS011;67988;60.086;30.354;2023-07-31T09:16:27;3.75;;;2.20;;
78672;SDS011;67988;60.086;30.354;2023-07-31T09:18:57;7.45;;;2.90;;
78672;SDS011;67988;60.086;30.354;2023-07-31T09:21:27;4.90;;;2.30;;
78672;SDS011;67988;60.086;30.354;2023-07-31T09:23:54;8.02;;;2.22;;
78672;SDS011;67988;60.086;30.354;2023-07-31T09:26:32;5.32;;;2.05;;
78672;SDS011;67988;60.086;30.354;2023-07-31T09:29:01;5.78;;;2.10;;
78672;SDS011;67988;60.086;30.354;2023-07-31T09:31:38;7.38;;;2.92;;
78672;SDS011;67988;60.086;30.354;2023-07-31T09:34:06;5.32;;;2.65;;
78672;SDS011;67988;60.086;30.354;2023-07-31T09:36:39;3.70;;;2.55;;
78672;SDS011;67988;60.086;30.354;2023-07-31T09:39:08;5.85;;;2.47;;
78672;SDS011;67988;60.086;30.354;2023-07-31T09:41:37;4.25;;;1.95;;
78672;SDS011;67988;60.086;30.354;2023-07-31T09:44:05;4.80;;;1.95;;
78672;SDS011;67988;60.086;30.354;2023-07-31T09:46:34;4.95;;;2.30;;
78672;SDS011;67988;60.086;30.354;2023-07-31T09:49:06;5.15;;;2.30;;
78672;SDS011;67988;60.086;30.354;2023-07-31T09:51:35;3.83;;;1.55;;
78672;SDS011;67988;60.086;30.354;2023-07-31T09:54:10;4.00;;;1.67;;
78672;SDS011;67988;60.086;30.354;2023-07-31T09:56:42;5.85;;;2.50;;
78672;SDS011;67988;60.086;30.354;2023-07-31T09:59:11;8.15;;;1.92;;
78672;SDS011;67988;60.086;30.354;2023-07-31T10:01:40;3.60;;;1.13;;
78672;SDS011;67988;60.086;30.354;2023-07-31T10:04:08;2.75;;;1.50;;
78672;SDS011;67988;60.086;30.354;2023-07-31T10:06:37;3.58;;;1.63;;
78672;SDS011;67988;60.086;30.354;2023-07-31T10:09:05;2.88;;;1.27;;
78672;SDS011;67988;60.086;30.354;2023-07-31T10:11:36;4.75;;;2.15;;
78672;SDS011;67988;60.086;30.354;2023-07-31T10:14:10;6.22;;;2.13;;
78672;SDS011;67988;60.086;30.354;2023-07-31T10:16:38;4.72;;;1.65;;
78672;SDS011;67988;60.086;30.354;2023-07-31T10:19:06;4.60;;;1.75;;
78672;SDS011;67988;60.086;30.354;2023-07-31T10:21:35;9.25;;;2.20;;
78672;SDS011;67988;60.086;30.354;2023-07-31T10:24:04;6.22;;;1.90;;
78672;SDS011;67988;60.086;30.354;2023-07-31T10:26:32;2.20;;;1.95;;
78672;SDS011;67988;60.086;30.354;2023-07-31T10:28:59;11.90;;;7.47;;
78672;SDS011;67988;60.086;30.354;2023-07-31T10:33:56;4.55;;;1.98;;
78672;SDS011;67988;60.086;30.354;2023-07-31T10:36:25;5.03;;;2.63;;
78672;SDS011;67988;60.086;30.354;2023-07-31T10:41:27;4.30;;;2.28;;
78672;SDS011;67988;60.086;30.354;2023-07-31T10:43:57;4.43;;;1.65;;
78672;SDS011;67988;60.086;30.354;2023-07-31T10:46:24;4.28;;;2.03;;
78672;SDS011;67988;60.086;30.354;2023-07-31T10:48:58;3.65;;;2.13;;
78672;SDS011;67988;60.086;30.354;2023-07-31T10:51:32;2.47;;;1.30;;
78672;SDS011;67988;60.086;30.354;2023-07-31T10:54:10;2.08;;;1.40;;
78672;SDS011;67988;60.086;30.354;2023-07-31T10:56:38;3.35;;;1.40;;
78672;SDS011;67988;60.086;30.354;2023-07-31T10:59:05;5.65;;;1.75;;
78672;SDS011;67988;60.086;30.354;2023-07-31T11:04:23;8.73;;;2.70;;
78672;SDS011;67988;60.086;30.354;2023-07-31T11:06:55;4.93;;;1.52;;
78672;SDS011;67988;60.086;30.354;2023-07-31T11:09:25;3.70;;;1.52;;
78672;SDS011;67988;60.086;30.354;2023-07-31T11:11:55;4.55;;;1.75;;
78672;SDS011;67988;60.086;30.354;2023-07-31T11:14:22;3.28;;;2.33;;
78672;SDS011;67988;60.086;30.354;2023-07-31T11:16:50;3.50;;;2.00;;
78672;SDS011;67988;60.086;30.354;2023-07-31T11:19:22;3.22;;;1.65;;
78672;SDS011;67988;60.086;30.354;2023-07-31T11:21:50;2.33;;;1.50;;
78672;SDS011;67988;60.086;30.354;2023-07-31T11:24:19;8.85;;;1.35;;
78672;SDS011;67988;60.086;30.354;2023-07-31T11:26:50;3.30;;;1.40;;
78672;SDS011;67988;60.086;30.354;2023-07-31T11:29:17;2.90;;;1.90;;
78672;SDS011;67988;60.086;30.354;2023-07-31T11:31:46;6.35;;;2.30;;
78672;SDS011;67988;60.086;30.354;2023-07-31T11:34:14;5.63;;;1.50;;
78672;SDS011;67988;60.086;30.354;2023-07-31T11:36:53;6.47;;;1.92;;
78672;SDS011;67988;60.086;30.354;2023-07-31T11:39:21;5.00;;;1.73;;
78672;SDS011;67988;60.086;30.354;2023-07-31T11:41:48;5.45;;;1.90;;
78672;SDS011;67988;60.086;30.354;2023-07-31T11:44:15;3.83;;;2.20;;
78672;SDS011;67988;60.086;30.354;2023-07-31T11:49:10;6.13;;;2.67;;
78672;SDS011;67988;60.086;30.354;2023-07-31T11:51:37;4.38;;;2.70;;
78672;SDS011;67988;60.086;30.354;2023-07-31T11:54:06;3.63;;;2.22;;
78672;SDS011;67988;60.086;30.354;2023-07-31T11:56:33;4.22;;;1.95;;
78672;SDS011;67988;60.086;30.354;2023-07-31T11:59:00;5.68;;;2.25;;
78672;SDS011;67988;60.086;30.354;2023-07-31T12:01:30;4.07;;;1.98;;
78672;SDS011;67988;60.086;30.354;2023-07-31T12:03:58;4.78;;;1.73;;
78672;SDS011;67988;60.086;30.354;2023-07-31T12:06:32;2.78;;;1.55;;
78672;SDS011;67988;60.086;30.354;2023-07-31T12:09:00;3.67;;;1.75;;
78672;SDS011;67988;60.086;30.354;2023-07-31T12:11:30;6.47;;;1.55;;
78672;SDS011;67988;60.086;30.354;2023-07-31T12:13:57;6.15;;;1.90;;
78672;SDS011;67988;60.086;30.354;2023-07-31T12:16:26;2.40;;;1.77;;
78672;SDS011;67988;60.086;30.354;2023-07-31T12:18:53;6.57;;;1.55;;
78672;SDS011;67988;60.086;30.354;2023-07-31T12:21:20;4.90;;;1.50;;
78672;SDS011;67988;60.086;30.354;2023-07-31T12:23:47;8.13;;;2.10;;
78672;SDS011;67988;60.086;30.354;2023-07-31T12:26:15;3.42;;;1.42;;
78672;SDS011;67988;60.086;30.354;2023-07-31T12:28:44;3.40;;;1.50;;
78672;SDS011;67988;60.086;30.354;2023-07-31T12:31:13;8.15;;;2.15;;
78672;SDS011;67988;60.086;30.354;2023-07-31T12:33:42;6.57;;;1.52;;
78672;SDS011;67988;60.086;30.354;2023-07-31T12:36:10;11.40;;;1.75;;
78672;SDS011;67988;60.086;30.354;2023-07-31T12:38:38;2.67;;;1.52;;
78672;SDS011;67988;60.086;30.354;2023-07-31T12:41:06;4.80;;;2.08;;
78672;SDS011;67988;60.086;30.354;2023-07-31T12:43:33;3.85;;;1.38;;
78672;SDS011;67988;60.086;30.354;2023-07-31T12:46:02;4.95;;;1.98;;
78672;SDS011;67988;60.086;30.354;2023-07-31T12:48:29;9.43;;;2.08;;
78672;SDS011;67988;60.086;30.354;2023-07-31T12:50:57;9.98;;;1.77;;
78672;SDS011;67988;60.086;30.354;2023-07-31T12:53:24;4.63;;;1.30;;
78672;SDS011;67988;60.086;30.354;2023-07-31T12:55:52;9.95;;;2.38;;
78672;SDS011;67988;60.086;30.354;2023-07-31T12:58:19;7.30;;;1.85;;
78672;SDS011;67988;60.086;30.354;2023-07-31T13:00:46;9.48;;;1.98;;
78672;SDS011;67988;60.086;30.354;2023-07-31T13:03:14;7.00;;;2.00;;
78672;SDS011;67988;60.086;30.354;2023-07-31T13:05:42;5.28;;;1.88;;
78672;SDS011;67988;60.086;30.354;2023-07-31T13:08:09;12.82;;;2.85;;
78672;SDS011;67988;60.086;30.354;2023-07-31T13:10:37;6.07;;;1.50;;
78672;SDS011;67988;60.086;30.354;2023-07-31T13:13:04;5.68;;;1.67;;
78672;SDS011;67988;60.086;30.354;2023-07-31T13:15:31;6.68;;;1.70;;
78672;SDS011;67988;60.086;30.354;2023-07-31T13:17:58;5.43;;;1.83;;
78672;SDS011;67988;60.086;30.354;2023-07-31T13:20:27;3.42;;;1.65;;
78672;SDS011;67988;60.086;30.354;2023-07-31T13:22:54;3.63;;;1.65;;
78672;SDS011;67988;60.086;30.354;2023-07-31T13:25:21;4.80;;;1.92;;
78672;SDS011;67988;60.086;30.354;2023-07-31T13:27:48;6.82;;;2.08;;
78672;SDS011;67988;60.086;30.354;2023-07-31T13:30:15;5.68;;;1.90;;
78672;SDS011;67988;60.086;30.354;2023-07-31T13:32:42;5.05;;;1.83;;
78672;SDS011;67988;60.086;30.354;2023-07-31T13:35:09;7.63;;;2.15;;
78672;SDS011;67988;60.086;30.354;2023-07-31T13:37:38;8.35;;;2.50;;
78672;SDS011;67988;60.086;30.354;2023-07-31T13:40:06;7.55;;;2.92;;
78672;SDS011;67988;60.086;30.354;2023-07-31T13:42:34;4.30;;;2.72;;
78672;SDS011;67988;60.086;30.354;2023-07-31T13:47:28;5.97;;;2.72;;
78672;SDS011;67988;60.086;30.354;2023-07-31T13:49:55;10.38;;;2.53;;
78672;SDS011;67988;60.086;30.354;2023-07-31T13:54:50;6.15;;;3.67;;
78672;SDS011;67988;60.086;30.354;2023-07-31T13:57:17;3.67;;;2.50;;
78672;SDS011;67988;60.086;30.354;2023-07-31T13:59:44;5.20;;;2.67;;
78672;SDS011;67988;60.086;30.354;2023-07-31T14:02:11;4.45;;;2.60;;
78672;SDS011;67988;60.086;30.354;2023-07-31T14:04:39;5.25;;;2.63;;
78672;SDS011;67988;60.086;30.354;2023-07-31T14:07:06;15.95;;;3.53;;
78672;SDS011;67988;60.086;30.354;2023-07-31T14:09:33;12.38;;;5.43;;
78672;SDS011;67988;60.086;30.354;2023-07-31T14:12:02;6.03;;;2.83;;
78672;SDS011;67988;60.086;30.354;2023-07-31T14:14:29;7.03;;;2.90;;
78672;SDS011;67988;60.086;30.354;2023-07-31T14:16:59;9.00;;;3.28;;
78672;SDS011;67988;60.086;30.354;2023-07-31T14:19:26;7.50;;;4.35;;
78672;SDS011;67988;60.086;30.354;2023-07-31T14:21:53;14.40;;;3.00;;
78672;SDS011;67988;60.086;30.354;2023-07-31T14:24:20;11.73;;;3.75;;
78672;SDS011;67988;60.086;30.354;2023-07-31T14:26:47;22.92;;;4.70;;
78672;SDS011;67988;60.086;30.354;2023-07-31T14:29:16;17.17;;;4.50;;
78672;SDS011;67988;60.086;30.354;2023-07-31T14:31:43;4.20;;;2.42;;
78672;SDS011;67988;60.086;30.354;2023-07-31T14:34:11;22.60;;;5.82;;
78672;SDS011;67988;60.086;30.354;2023-07-31T14:36:38;9.00;;;2.80;;
78672;SDS011;67988;60.086;30.354;2023-07-31T14:39:05;3.85;;;2.72;;
78672;SDS011;67988;60.086;30.354;2023-07-31T14:41:32;8.05;;;4.00;;
78672;SDS011;67988;60.086;30.354;2023-07-31T14:43:59;6.40;;;3.83;;
78672;SDS011;67988;60.086;30.354;2023-07-31T14:46:28;7.50;;;4.53;;
78672;SDS011;67988;60.086;30.354;2023-07-31T14:48:55;8.07;;;3.70;;
78672;SDS011;67988;60.086;30.354;2023-07-31T14:51:22;9.25;;;4.05;;
78672;SDS011;67988;60.086;30.354;2023-07-31T14:53:49;13.75;;;4.68;;
78672;SDS011;67988;60.086;30.354;2023-07-31T14:56:16;5.55;;;3.47;;
78672;SDS011;67988;60.086;30.354;2023-07-31T14:58:43;5.57;;;3.63;;
78672;SDS011;67988;60.086;30.354;2023-07-31T15:01:10;5.97;;;4.20;;
78672;SDS011;67988;60.086;30.354;2023-07-31T15:03:39;6.78;;;4.07;;
78672;SDS011;67988;60.086;30.354;2023-07-31T15:06:06;5.63;;;3.35;;
78672;SDS011;67988;60.086;30.354;2023-07-31T15:08:33;6.75;;;4.40;;
78672;SDS011;67988;60.086;30.354;2023-07-31T15:11:02;7.53;;;4.30;;